Broadwell, Illinois
Current Conditions -  °F | °C
As of 6:31 AM on Friday 24 Oct 2014 (Local Time) from KSPI Reporting Station
Haze Haze  
Wind Chill: 54°   Ceiling: 200
Heat Index: 54°   Visibility: 1.2mi
Dew Point: 52°   Wind: 5mph
Humidity: 93%   Direction: 290°WNW
Pressure: 30.08"   Gusts: NA
Location:  39.9935°N, 89.4758°W
Report Text: KSPI 241131Z 29004KT 1 1/4SM BR OVC002 12/11 A3008 RMK AO2 T01220111
Loading
Personal Weather Stations






























Interactive Weather Map New forecast layout! Learn more

10-Day Weather Forecast

Advertisements
Track Severe Weather on mobile